»·PEaware :: AAL1097 KLAS-KSAN

AAL1097 :: KLAS-KSAN

FLIGHT INFORMATION

Flight Status: Arrived
Operator:
American Airlines
More flights by this operator :: More flights under this callsign
Pilot: Adam A. (5112)
Aircraft: BOEING 767-300
(B763)
More flights by this aircraft type
Origin: KLAS McCarran Intl
United States
Destination: KSAN San Diego Intl-Lindbergh
United States
More flights between these airports :: More routes between these airports
Route: +BOACH6 TNP LYNDI4
File this flight plan on PilotEdge
Remarks:
Altitude:
(Current/Filed)
30,000ft
Speed:
(Current/Filed)
440kts
Departed: 29-Mar-16 06:47 PM
Arrived: 29-Mar-16 07:41 PM
Distance/Time
Traveled:
225nm/0:54
Distance/Time
To Go:
Arrived

Flight Plot

Page will automatically refresh every two minutes.


Map Options




Map Legend


Flown Route
Filed Route
Departure Airport
Arrival Airport
Navaid (VOR, NDB)
Fix

Horizontal Profiles

Position Reports

Time Latitude Longitude Heading Altitude Ground
Speed
29-Mar-16 18:11 36.079856 -115.140504 57 2152ft 0kts
29-Mar-16 18:12 36.079856 -115.140504 57 2152ft 0kts
29-Mar-16 18:13 36.079856 -115.140504 57 2152ft 0kts
29-Mar-16 18:14 36.079856 -115.140504 57 2152ft 0kts
29-Mar-16 18:15 36.079856 -115.140504 57 2152ft 0kts
29-Mar-16 18:16 36.079856 -115.140504 57 2152ft 0kts
29-Mar-16 18:17 36.079856 -115.140504 57 2152ft 0kts
29-Mar-16 18:18 36.079856 -115.140504 57 2152ft 0kts
29-Mar-16 18:19 36.079856 -115.140504 57 2152ft 0kts
29-Mar-16 18:20 36.079856 -115.140504 57 2152ft 0kts
29-Mar-16 18:21 36.079856 -115.140504 57 2152ft 0kts
29-Mar-16 18:22 36.079856 -115.140504 57 2152ft 0kts
29-Mar-16 18:23 36.079856 -115.140504 57 2152ft 0kts
29-Mar-16 18:24 36.079856 -115.140504 57 2152ft 0kts
29-Mar-16 18:25 36.079856 -115.140504 57 2152ft 0kts
29-Mar-16 18:26 36.079848 -115.140522 58 2152ft 1kts
29-Mar-16 18:27 36.079553 -115.141182 91 2152ft 1kts
29-Mar-16 18:28 36.079792 -115.141576 172 2152ft 2kts
29-Mar-16 18:29 36.078259 -115.142744 266 2152ft 16kts
29-Mar-16 18:30 36.078755 -115.150894 275 2152ft 12kts
29-Mar-16 18:31 36.081264 -115.154826 333 2152ft 25kts
29-Mar-16 18:32 36.087477 -115.157690 16 2152ft 23kts
29-Mar-16 18:33 36.093553 -115.154213 24 2152ft 25kts
29-Mar-16 18:34 36.097553 -115.152094 354 2152ft 11kts
29-Mar-16 18:35 36.097112 -115.154385 202 2152ft 0kts
29-Mar-16 18:36 36.097075 -115.154405 204 2152ft 0kts
29-Mar-16 18:37 36.097075 -115.154405 204 2152ft 0kts
29-Mar-16 18:38 36.097075 -115.154405 204 2152ft 0kts
29-Mar-16 18:39 36.095702 -115.155215 204 2152ft 61kts
29-Mar-16 18:40 36.052542 -115.179378 209 4242ft 216kts
29-Mar-16 18:41 36.005557 -115.224371 243 6012ft 218kts
29-Mar-16 18:42 35.973920 -115.292389 227 8717ft 253kts
29-Mar-16 18:43 35.899875 -115.310510 186 10999ft 335kts
29-Mar-16 18:44 35.800131 -115.308566 175 14560ft 375kts
29-Mar-16 18:45 35.693917 -115.296581 176 18192ft 397kts
29-Mar-16 18:46 35.601716 -115.297841 183 19033ft 401kts
29-Mar-16 18:47 35.470218 -115.303054 184 21518ft 416kts
29-Mar-16 18:48 35.374415 -115.306839 184 23026ft 426kts
29-Mar-16 18:49 35.256519 -115.311471 184 23038ft 425kts
29-Mar-16 18:50 35.137226 -115.316163 184 24206ft 436kts
29-Mar-16 18:51 35.014887 -115.320960 184 26899ft 449kts
29-Mar-16 18:52 34.889810 -115.325823 185 29749ft 446kts
29-Mar-16 18:53 34.769744 -115.337687 204 29843ft 412kts
29-Mar-16 18:54 34.665383 -115.381786 209 29862ft 391kts
29-Mar-16 18:55 34.560488 -115.427630 208 29952ft 425kts
29-Mar-16 18:56 34.448796 -115.476149 208 29933ft 428kts
29-Mar-16 18:57 34.338596 -115.526448 216 29930ft 419kts
29-Mar-16 18:58 34.251413 -115.614117 228 29935ft 406kts
29-Mar-16 18:59 34.168527 -115.706666 229 29933ft 406kts
29-Mar-16 19:00 34.072843 -115.780639 204 29928ft 433kts
29-Mar-16 19:01 33.956459 -115.815270 202 28832ft 405kts
29-Mar-16 19:02 33.850459 -115.846535 202 27272ft 395kts
29-Mar-16 19:03 33.745695 -115.877140 202 26013ft 386kts
29-Mar-16 19:04 33.642391 -115.907246 201 24823ft 381kts
29-Mar-16 19:05 33.541720 -115.939659 212 23660ft 368kts
29-Mar-16 19:06 33.474846 -116.016900 238 22523ft 349kts
29-Mar-16 19:07 33.420204 -116.107812 240 21018ft 347kts
29-Mar-16 19:08 33.365692 -116.201843 241 19397ft 344kts
29-Mar-16 19:09 33.293165 -116.275863 213 17841ft 361kts
29-Mar-16 19:10 33.204577 -116.328026 212 16126ft 354kts
29-Mar-16 19:11 33.119137 -116.377974 211 14379ft 344kts
29-Mar-16 19:12 33.035122 -116.426980 211 12598ft 336kts
29-Mar-16 19:13 32.953944 -116.474073 210 10852ft 332kts
29-Mar-16 19:14 32.871964 -116.521436 209 9671ft 344kts
29-Mar-16 19:15 32.812950 -116.597392 243 8788ft 316kts
29-Mar-16 19:16 32.771374 -116.681452 241 6951ft 297kts
29-Mar-16 19:17 32.730852 -116.755530 240 6916ft 233kts
29-Mar-16 19:18 32.698442 -116.812686 240 6952ft 199kts
29-Mar-16 19:19 32.668037 -116.866101 240 6995ft 199kts
29-Mar-16 19:20 32.637498 -116.920070 240 6965ft 199kts
29-Mar-16 19:21 32.594736 -116.952281 157 6989ft 225kts
29-Mar-16 19:22 32.581748 -116.886133 81 6987ft 227kts
29-Mar-16 19:23 32.588356 -116.813657 81 6969ft 219kts
29-Mar-16 19:24 32.624345 -116.778408 323 6667ft 194kts
29-Mar-16 19:25 32.639395 -116.830230 281 5903ft 190kts
29-Mar-16 19:26 32.648940 -116.890525 281 4972ft 189kts
29-Mar-16 19:27 32.663159 -116.948666 293 4908ft 189kts
29-Mar-16 19:28 32.686879 -116.998809 286 4187ft 170kts
29-Mar-16 19:29 32.699946 -117.051326 286 2498ft 176kts
29-Mar-16 19:30 32.712796 -117.105884 284 1113ft 170kts
29-Mar-16 19:31 32.723596 -117.148857 286 536ft 123kts
29-Mar-16 19:32 32.732487 -117.185339 284 29ft 104kts
29-Mar-16 19:33 32.733491 -117.193779 287 28ft 17kts
29-Mar-16 19:34 32.734808 -117.199237 284 28ft 18kts
29-Mar-16 19:35 32.735387 -117.204699 230 28ft 14kts
29-Mar-16 19:36 32.732644 -117.206356 190 28ft 2kts
29-Mar-16 19:37 32.732522 -117.206384 191 28ft 0kts
29-Mar-16 19:38 32.732522 -117.206384 191 28ft 0kts
29-Mar-16 19:39 32.732522 -117.206384 191 28ft 0kts

Navigation Log

Ident Type
Flight plan parsing failed, navigation log unavailable